Time;durP1;ratioP1;P1;durP2;ratioP2;P2;SDS_P1;SDS_P2;PMS_P1;PMS_P2;Temp;Humidity;BMP_temperature;BMP_pressure;BME280_temperature;BME280_humidity;BME280_pressure;Samples;Min_cycle;Max_cycle;Signal;HPM_P1;HPM_P2
2022/01/09 00:01:38;;;;;;;0.20;0.20;;;;;;;4.55;95.38;96995.34;2029460;77;28040;-70
2022/01/09 00:04:40;;;;;;;0.20;0.20;;;;;;;4.55;95.07;96983.31;2032055;79;20337;-70
2022/01/09 00:07:44;;;;;;;0.38;0.20;;;;;;;4.58;94.75;96985.00;2029937;79;20914;-70
2022/01/09 00:10:47;;;;;;;0.85;0.14;;;;;;;4.54;94.45;96973.94;2030988;79;20389;-70
2022/01/09 00:13:50;;;;;;;0.54;0.21;;;;;;;4.55;94.54;96992.75;2031436;79;20387;-70
2022/01/09 00:16:52;;;;;;;0.20;0.20;;;;;;;4.48;94.62;96971.47;2026094;77;22026;-70
2022/01/09 00:19:55;;;;;;;0.10;0.10;;;;;;;4.47;94.62;96974.91;2026829;79;20315;-70
2022/01/09 00:22:57;;;;;;;0.10;0.10;;;;;;;4.43;94.15;96975.00;2026817;79;20376;-70
2022/01/09 00:26:01;;;;;;;0.20;0.20;;;;;;;4.42;93.83;96971.59;2026401;79;20415;-70
2022/01/09 00:29:06;;;;;;;0.10;0.10;;;;;;;4.39;93.80;96974.22;2026504;79;20357;-70
2022/01/09 00:35:20;;;;;;;0.10;0.10;;;;;;;4.38;93.94;96971.69;2078477;69;20448;-70
2022/01/09 00:38:22;;;;;;;0.10;0.10;;;;;;;4.34;94.04;96975.19;2026489;79;20855;-70
2022/01/09 00:41:25;;;;;;;0.25;0.16;;;;;;;4.28;94.50;96990.69;2026114;79;20323;-70
2022/01/09 00:44:27;;;;;;;0.10;0.10;;;;;;;4.25;94.82;96983.91;2026807;79;20307;-70
2022/01/09 00:47:30;;;;;;;0.20;0.10;;;;;;;4.28;95.06;96983.84;2024585;77;22876;-70
2022/01/09 00:50:36;;;;;;;0.43;0.20;;;;;;;4.30;95.13;96983.81;2026340;79;20380;-70
2022/01/09 00:53:39;;;;;;;0.17;0.17;;;;;;;4.30;95.46;96994.91;2026386;79;20360;-70
2022/01/09 00:56:41;;;;;;;0.69;0.17;;;;;;;4.34;95.70;96996.59;2026390;79;20322;-70
2022/01/09 00:59:44;;;;;;;0.20;0.20;;;;;;;4.33;95.81;96989.75;2026330;79;20458;-70
2022/01/09 01:02:46;;;;;;;0.35;0.13;;;;;;;4.37;96.11;96982.84;2024314;77;24091;-70
2022/01/09 01:05:49;;;;;;;0.68;0.21;;;;;;;4.39;96.22;96994.75;2026225;79;20331;-70
2022/01/09 01:08:52;;;;;;;0.73;0.20;;;;;;;4.43;96.38;96990.41;2026149;79;20441;-69
2022/01/09 01:11:54;;;;;;;0.40;0.20;;;;;;;4.45;96.66;96994.63;2025984;79;20423;-70
2022/01/09 01:14:57;;;;;;;0.51;0.11;;;;;;;4.49;96.92;97003.16;2029405;79;20404;-69
2022/01/09 01:18:00;;;;;;;2.01;0.20;;;;;;;4.51;97.13;97007.41;2024693;77;21220;-70
2022/01/09 01:21:03;;;;;;;0.55;0.20;;;;;;;4.55;97.30;97005.59;2026134;79;20335;-70
2022/01/09 01:24:05;;;;;;;1.42;0.24;;;;;;;4.60;97.43;97020.94;2026187;79;20443;-70
2022/01/09 01:27:09;;;;;;;2.08;0.30;;;;;;;4.64;97.50;97014.84;2026075;79;20335;-70
2022/01/09 01:30:12;;;;;;;1.31;0.30;;;;;;;4.68;97.52;97029.34;2024374;79;20336;-70
2022/01/09 01:33:15;;;;;;;1.08;0.20;;;;;;;4.72;97.70;97036.13;2025313;77;23033;-70
2022/01/09 01:36:17;;;;;;;2.16;0.20;;;;;;;4.75;97.63;97043.78;2026283;79;21040;-70
2022/01/09 01:39:20;;;;;;;1.09;0.38;;;;;;;4.78;97.62;97059.13;2025502;79;20337;-70
2022/01/09 01:42:23;;;;;;;1.91;0.40;;;;;;;4.81;97.80;97064.22;2025876;79;20411;-70
2022/01/09 01:45:25;;;;;;;1.04;0.24;;;;;;;4.83;97.87;97071.00;2029160;77;21795;-70
2022/01/09 01:48:29;;;;;;;0.50;0.20;;;;;;;4.85;98.00;97078.72;2028166;79;20322;-70
2022/01/09 01:51:34;;;;;;;1.08;0.31;;;;;;;4.87;97.88;97094.13;2026960;79;20792;-70
2022/01/09 01:54:39;;;;;;;2.11;0.24;;;;;;;4.91;97.80;97101.75;2026627;79;21223;-70
2022/01/09 01:57:44;;;;;;;0.26;0.20;;;;;;;4.93;97.49;97115.41;2027073;79;20445;-70
2022/01/09 02:00:47;;;;;;;0.44;0.28;;;;;;;4.93;97.07;97127.41;2026991;77;22119;-70
2022/01/09 02:03:49;;;;;;;0.34;0.20;;;;;;;4.88;96.90;97135.22;2031687;79;20368;-70
2022/01/09 02:06:53;;;;;;;0.10;0.10;;;;;;;4.88;96.72;97144.66;2032235;79;20355;-70
2022/01/09 02:09:56;;;;;;;0.10;0.10;;;;;;;4.85;96.48;97151.56;2032626;79;20354;-70
2022/01/09 02:12:58;;;;;;;0.44;0.30;;;;;;;4.82;96.16;97168.75;2033285;79;20348;-70
2022/01/09 02:16:01;;;;;;;0.10;0.10;;;;;;;4.77;95.75;97178.25;2028549;79;20334;-70
2022/01/09 02:19:05;;;;;;;0.10;0.10;;;;;;;4.74;95.62;97179.16;2027823;77;21430;-70
2022/01/09 02:22:11;;;;;;;0.10;0.10;;;;;;;4.72;95.66;97198.06;2027321;80;20342;-70
2022/01/09 02:25:15;;;;;;;0.10;0.10;;;;;;;4.66;95.31;97203.28;2027591;80;20453;-70
2022/01/09 02:28:18;;;;;;;0.10;0.10;;;;;;;4.64;94.92;97210.19;2027193;80;20307;-70
2022/01/09 02:31:21;;;;;;;0.14;0.10;;;;;;;4.58;94.67;97231.69;2028430;77;20848;-70
2022/01/09 02:34:23;;;;;;;0.10;0.10;;;;;;;4.50;94.11;97241.25;2033521;79;20333;-70
2022/01/09 02:37:26;;;;;;;0.10;0.10;;;;;;;4.45;94.08;97245.59;2033269;79;20363;-70
2022/01/09 02:40:29;;;;;;;0.20;0.10;;;;;;;4.39;94.09;97271.38;2033461;79;20350;-70
2022/01/09 02:43:31;;;;;;;0.10;0.10;;;;;;;4.35;93.76;97274.88;2032826;79;20476;-70
2022/01/09 02:49:45;;;;;;;0.45;0.10;;;;;;;4.31;93.95;97307.47;2032347;79;20309;-70
2022/01/09 02:52:55;;;;;;;0.10;0.10;;;;;;;4.22;93.73;97308.41;2031299;79;20899;-70
2022/01/09 02:55:57;;;;;;;0.10;0.10;;;;;;;4.17;93.77;97319.63;2032863;79;20948;-71
2022/01/09 02:59:01;;;;;;;0.10;0.10;;;;;;;4.13;93.88;97334.22;2029331;79;21299;-71
2022/01/09 03:02:04;;;;;;;0.10;0.10;;;;;;;4.09;93.91;97332.53;2026749;77;21370;-71
2022/01/09 03:05:08;;;;;;;0.10;0.10;;;;;;;4.05;93.95;97348.84;2027324;79;20790;-71
2022/01/09 03:08:12;;;;;;;0.10;0.10;;;;;;;4.05;94.09;97356.56;2028243;79;20336;-71
2022/01/09 03:11:14;;;;;;;0.19;0.19;;;;;;;4.03;93.88;97368.56;2027565;79;20342;-71
2022/01/09 03:14:17;;;;;;;0.10;0.10;;;;;;;3.98;93.81;97378.06;2028327;79;20339;-71
2022/01/09 03:17:19;;;;;;;0.10;0.10;;;;;;;3.95;94.07;97383.22;2026129;77;22477;-71
2022/01/09 03:20:25;;;;;;;0.10;0.10;;;;;;;3.95;94.30;97396.06;2031696;79;20523;-71
2022/01/09 03:23:28;;;;;;;0.10;0.10;;;;;;;3.92;94.51;97401.19;2027595;79;21285;-71
2022/01/09 03:26:30;;;;;;;0.41;0.19;;;;;;;3.90;94.73;97408.06;2027268;79;20326;-71
2022/01/09 03:29:33;;;;;;;0.21;0.16;;;;;;;3.88;95.02;97420.06;2028550;79;20433;-71
2022/01/09 03:32:38;;;;;;;0.16;0.10;;;;;;;3.87;95.09;97428.66;2030624;77;20968;-71
2022/01/09 03:35:41;;;;;;;0.10;0.10;;;;;;;3.88;95.35;97436.31;2032544;79;20335;-71
2022/01/09 03:38:43;;;;;;;0.30;0.25;;;;;;;3.89;95.47;97432.91;2032749;79;20329;-71
2022/01/09 03:41:46;;;;;;;1.16;0.20;;;;;;;3.89;95.42;97448.31;2032160;79;21170;-71
2022/01/09 03:44:49;;;;;;;0.20;0.10;;;;;;;3.92;95.63;97442.28;2033189;79;20796;-71
2022/01/09 03:47:52;;;;;;;0.20;0.20;;;;;;;3.91;95.58;97456.84;2030321;77;26984;-71
2022/01/09 03:50:55;;;;;;;1.10;0.20;;;;;;;3.93;95.57;97467.94;2033442;79;20737;-71
2022/01/09 03:53:59;;;;;;;0.34;0.24;;;;;;;3.94;95.49;97471.34;2036689;79;20427;-71
2022/01/09 03:57:01;;;;;;;1.25;0.10;;;;;;;3.97;95.39;97478.19;2032589;79;20351;-71
2022/01/09 04:00:08;;;;;;;0.45;0.16;;;;;;;3.99;95.40;97489.31;2031439;79;20441;-71
2022/01/09 04:03:10;;;;;;;0.21;0.19;;;;;;;3.98;95.39;97488.47;2032884;78;24266;-71
2022/01/09 04:06:13;;;;;;;0.77;0.20;;;;;;;4.02;95.48;97500.41;2033633;79;20322;-71
2022/01/09 04:09:20;;;;;;;0.96;0.20;;;;;;;4.03;95.56;97509.81;2032427;79;20359;-71
2022/01/09 04:12:33;;;;;;;0.57;0.21;;;;;;;4.05;95.53;97522.63;2032817;79;20351;-71
2022/01/09 04:15:36;;;;;;;0.16;0.16;;;;;;;4.06;95.62;97525.19;2031124;78;21341;-72
2022/01/09 04:18:38;;;;;;;0.50;0.20;;;;;;;4.09;95.55;97527.72;2033393;79;20310;-72
2022/01/09 04:21:41;;;;;;;1.59;0.40;;;;;;;4.10;95.56;97518.28;2032968;79;20371;-71
2022/01/09 04:24:44;;;;;;;0.20;0.20;;;;;;;4.07;95.51;97531.16;2033118;79;20309;-71
2022/01/09 04:27:48;;;;;;;2.45;0.40;;;;;;;4.08;95.50;97538.84;2032482;79;20353;-71
2022/01/09 04:30:51;;;;;;;2.10;0.32;;;;;;;4.04;95.41;97557.72;2031955;77;22016;-72
2022/01/09 04:33:53;;;;;;;3.61;0.81;;;;;;;4.05;95.48;97553.44;2036717;79;20323;-72
2022/01/09 04:36:59;;;;;;;1.45;0.30;;;;;;;4.07;95.50;97567.97;2032758;79;20338;-72
2022/01/09 04:40:04;;;;;;;3.01;0.47;;;;;;;4.06;95.44;97578.25;2029643;79;20343;-72
2022/01/09 04:43:09;;;;;;;1.80;0.34;;;;;;;4.07;95.40;97574.81;2031836;79;20349;-71
2022/01/09 04:46:18;;;;;;;2.06;0.40;;;;;;;4.06;95.36;97588.53;2030933;78;20835;-71
2022/01/09 04:49:24;;;;;;;2.45;0.43;;;;;;;4.06;95.30;97594.50;2032205;79;20326;-72
2022/01/09 04:52:33;;;;;;;2.96;0.65;;;;;;;4.05;95.33;97597.94;2033340;79;20344;-71
2022/01/09 04:55:49;;;;;;;4.20;0.65;;;;;;;4.06;95.24;97617.63;2032386;79;20298;-71
2022/01/09 04:58:52;;;;;;;2.50;0.56;;;;;;;4.08;95.29;97603.06;2033078;79;20538;-72
2022/01/09 05:01:54;;;;;;;4.10;0.70;;;;;;;4.08;95.01;97620.19;2031426;77;22679;-72
2022/01/09 05:04:57;;;;;;;4.80;0.80;;;;;;;4.05;94.46;97628.75;2032847;79;20350;-72
2022/01/09 05:08:00;;;;;;;4.15;0.82;;;;;;;4.06;94.10;97630.47;2033366;79;20369;-72
2022/01/09 05:11:03;;;;;;;5.20;0.71;;;;;;;4.06;93.49;97632.19;2033384;79;20868;-72
2022/01/09 05:14:06;;;;;;;5.68;1.02;;;;;;;4.08;93.33;97663.84;2033016;79;20327;-72
2022/01/09 05:17:08;;;;;;;5.24;0.96;;;;;;;4.07;93.05;97662.13;2031275;77;23096;-72
2022/01/09 05:20:12;;;;;;;3.59;0.79;;;;;;;4.06;93.07;97668.97;2033201;79;20821;-72
2022/01/09 05:23:14;;;;;;;4.76;0.66;;;;;;;4.07;93.03;97688.66;2032604;79;20314;-72
2022/01/09 05:26:17;;;;;;;4.61;0.99;;;;;;;4.08;92.83;97705.78;2033445;79;20733;-72
2022/01/09 05:29:21;;;;;;;6.44;1.39;;;;;;;4.04;92.84;97701.53;2032893;79;20355;-71
2022/01/09 05:32:24;;;;;;;4.38;0.88;;;;;;;3.99;92.83;97708.41;2030682;77;21052;-71
2022/01/09 05:35:27;;;;;;;6.24;1.20;;;;;;;3.93;92.59;97706.72;2033489;79;20366;-71
2022/01/09 05:38:30;;;;;;;3.84;0.95;;;;;;;3.90;92.79;97726.41;2032820;79;21170;-71
2022/01/09 05:41:33;;;;;;;4.59;0.91;;;;;;;3.90;92.76;97724.69;2033115;79;20364;-71
2022/01/09 05:44:36;;;;;;;4.99;0.77;;;;;;;3.84;92.65;97737.56;2032280;79;20912;-71
2022/01/09 05:47:39;;;;;;;5.68;0.82;;;;;;;3.83;92.93;97742.72;2030787;77;23927;-71
2022/01/09 05:50:42;;;;;;;5.01;0.90;;;;;;;3.83;93.03;97755.56;2032825;79;20378;-71
2022/01/09 05:53:45;;;;;;;5.45;0.70;;;;;;;3.81;93.21;97758.13;2033041;79;21471;-71
2022/01/09 05:56:47;;;;;;;4.06;1.36;;;;;;;3.79;93.33;97761.56;2032826;79;20329;-72
2022/01/09 05:59:50;;;;;;;4.53;0.60;;;;;;;3.77;93.49;97766.72;2032773;79;20375;-72
2022/01/09 06:02:53;;;;;;;6.01;0.82;;;;;;;3.75;93.34;97776.09;2031156;77;21647;-71
2022/01/09 06:05:56;;;;;;;3.31;0.70;;;;;;;3.69;93.38;97783.84;2032026;79;20391;-72
2022/01/09 06:08:58;;;;;;;4.35;0.76;;;;;;;3.68;93.50;97794.97;2036286;79;20337;-72
2022/01/09 06:12:01;;;;;;;8.45;0.75;;;;;;;3.67;93.59;97795.81;2031904;79;20386;-71
2022/01/09 06:15:05;;;;;;;6.11;0.90;;;;;;;3.68;93.37;97797.53;2031130;79;20359;-71
2022/01/09 06:18:07;;;;;;;2.70;0.70;;;;;;;3.69;93.47;97804.38;2032565;77;22363;-71
2022/01/09 06:21:10;;;;;;;7.31;1.04;;;;;;;3.72;93.31;97809.47;2035779;79;20375;-71
2022/01/09 06:24:13;;;;;;;4.04;1.11;;;;;;;3.72;92.97;97813.75;2033028;79;20333;-71
2022/01/09 06:27:15;;;;;;;6.46;0.90;;;;;;;3.74;92.64;97828.31;2032375;79;20362;-71
2022/01/09 06:30:18;;;;;;;2.83;0.60;;;;;;;3.72;92.61;97822.31;2031148;77;20859;-72
2022/01/09 06:33:21;;;;;;;5.40;0.80;;;;;;;3.72;92.47;97826.59;2032637;79;20305;-71
2022/01/09 06:36:23;;;;;;;6.63;0.70;;;;;;;3.69;92.30;97827.47;2030669;79;20462;-72
2022/01/09 06:39:26;;;;;;;8.82;0.98;;;;;;;3.71;91.68;97833.44;2031046;79;20326;-71
2022/01/09 06:42:28;;;;;;;7.59;0.86;;;;;;;3.70;91.19;97834.31;2029371;79;20318;-71
2022/01/09 06:45:31;;;;;;;5.09;1.20;;;;;;;3.72;90.72;97839.44;2030606;77;22934;-72
2022/01/09 06:48:34;;;;;;;6.36;1.42;;;;;;;3.73;90.04;97841.13;2030752;79;20346;-72
2022/01/09 06:51:37;;;;;;;6.71;0.89;;;;;;;3.70;89.66;97849.69;2032986;79;20329;-72
2022/01/09 06:54:40;;;;;;;6.44;0.77;;;;;;;3.70;89.73;97841.16;2032373;79;20390;-72
2022/01/09 06:57:44;;;;;;;10.13;0.96;;;;;;;3.73;89.73;97848.84;2033199;79;20306;-72
2022/01/09 07:00:47;;;;;;;4.07;0.94;;;;;;;3.72;89.86;97859.97;2030075;77;24114;-72
2022/01/09 07:03:49;;;;;;;6.16;1.64;;;;;;;3.70;89.57;97862.53;2031049;79;20424;-72
2022/01/09 07:06:52;;;;;;;14.94;1.52;;;;;;;3.68;88.94;97864.25;2030672;79;20427;-72
2022/01/09 07:09:54;;;;;;;9.86;1.00;;;;;;;3.69;88.91;97863.41;2030651;79;20353;-72
2022/01/09 07:12:57;;;;;;;5.41;0.98;;;;;;;3.70;88.98;97859.13;2031452;79;20426;-72
2022/01/09 07:15:59;;;;;;;10.93;1.27;;;;;;;3.64;88.96;97857.44;2031001;77;24344;-72
2022/01/09 07:19:02;;;;;;;6.00;0.80;;;;;;;3.57;88.99;97874.53;2033417;79;20338;-72
2022/01/09 07:22:05;;;;;;;7.56;1.21;;;;;;;3.54;89.29;97871.97;2033770;79;20481;-73
2022/01/09 07:25:08;;;;;;;5.53;0.98;;;;;;;3.53;89.57;97875.38;2032820;79;20378;-72
2022/01/09 07:28:12;;;;;;;4.25;1.04;;;;;;;3.52;89.68;97889.06;2033842;79;21145;-72
2022/01/09 07:31:15;;;;;;;12.66;1.20;;;;;;;3.52;89.88;97888.22;2031072;77;20875;-73
2022/01/09 07:34:18;;;;;;;7.40;1.20;;;;;;;3.53;90.26;97901.06;2033773;79;20347;-72
2022/01/09 07:37:21;;;;;;;10.52;1.42;;;;;;;3.54;90.45;97913.03;2033300;79;20314;-72
2022/01/09 07:40:24;;;;;;;7.65;1.36;;;;;;;3.58;90.50;97908.75;2033201;79;20435;-72
2022/01/09 07:43:27;;;;;;;7.05;0.98;;;;;;;3.57;90.57;97900.19;2033168;79;20525;-73
2022/01/09 07:46:30;;;;;;;7.60;0.96;;;;;;;3.61;90.81;97919.88;2031896;77;20539;-73
2022/01/09 07:49:32;;;;;;;10.39;1.45;;;;;;;3.64;91.29;97931.84;2033723;79;20302;-72
2022/01/09 07:52:35;;;;;;;7.80;1.14;;;;;;;3.67;91.57;97928.44;2030729;79;20335;-72
2022/01/09 07:55:38;;;;;;;6.93;1.08;;;;;;;3.69;91.65;97934.41;2018728;79;20390;-73
2022/01/09 07:58:41;;;;;;;8.20;0.81;;;;;;;3.66;91.76;97942.13;2031813;79;20405;-73
2022/01/09 08:01:43;;;;;;;10.24;2.61;;;;;;;3.69;91.89;97947.25;2026655;77;23581;-74
2022/01/09 08:04:46;;;;;;;7.01;0.86;;;;;;;3.69;91.95;97955.78;2026979;79;20369;-73
2022/01/09 08:07:50;;;;;;;8.60;1.14;;;;;;;3.69;92.00;97960.94;2026363;79;20363;-73
2022/01/09 08:10:53;;;;;;;6.39;1.11;;;;;;;3.71;92.09;97963.50;2027379;79;20344;-73
2022/01/09 08:13:55;;;;;;;5.11;1.30;;;;;;;3.70;92.31;97960.06;2026835;79;20836;-73
2022/01/09 08:16:59;;;;;;;8.31;1.00;;;;;;;3.70;92.25;97972.06;2025087;77;20630;-73
2022/01/09 08:20:03;;;;;;;8.88;1.15;;;;;;;3.71;92.17;97973.75;2026744;79;20781;-73
2022/01/09 08:23:05;;;;;;;7.31;1.10;;;;;;;3.75;92.03;97985.72;2026535;79;20399;-73
2022/01/09 08:26:09;;;;;;;6.94;0.96;;;;;;;3.75;92.10;97990.88;2026645;79;20356;-73
2022/01/09 08:29:12;;;;;;;6.89;1.05;;;;;;;3.78;92.23;97991.75;2025921;79;21256;-72
2022/01/09 08:32:14;;;;;;;7.25;1.10;;;;;;;3.82;92.24;98003.72;2023369;78;23023;-72
2022/01/09 08:35:18;;;;;;;7.55;1.42;;;;;;;3.89;92.27;98009.69;2024923;79;20445;-72
2022/01/09 08:38:20;;;;;;;7.81;1.56;;;;;;;3.90;91.92;98014.81;2024690;79;20348;-72
2022/01/09 08:41:23;;;;;;;6.51;0.90;;;;;;;3.93;91.18;98016.53;2025727;79;20798;-72
2022/01/09 08:44:26;;;;;;;7.64;0.86;;;;;;;3.93;91.09;98021.66;2024795;79;20509;-73
2022/01/09 08:47:28;;;;;;;9.13;1.19;;;;;;;3.92;91.10;98028.53;2023033;77;23799;-72
2022/01/09 08:50:31;;;;;;;6.71;0.71;;;;;;;3.90;90.97;98035.38;2025546;79;20468;-71
2022/01/09 08:53:37;;;;;;;3.81;0.74;;;;;;;3.86;90.59;98037.94;2021294;79;21196;-71
2022/01/09 08:56:41;;;;;;;6.22;0.66;;;;;;;3.84;90.57;98037.09;2023830;79;20475;-72
2022/01/09 08:59:43;;;;;;;4.01;0.90;;;;;;;3.84;90.90;98042.22;2024108;79;20350;-71
2022/01/09 09:02:47;;;;;;;6.91;0.94;;;;;;;3.82;90.96;98041.38;2028604;78;20338;-71
2022/01/09 09:05:50;;;;;;;5.82;1.01;;;;;;;3.84;91.10;98047.34;2030223;79;20357;-71
2022/01/09 09:08:53;;;;;;;4.30;0.79;;;;;;;3.86;91.29;98045.66;2028768;79;20375;-73
2022/01/09 09:11:55;;;;;;;3.92;0.96;;;;;;;3.89;91.47;98050.78;2031153;79;20333;-73
2022/01/09 09:15:03;;;;;;;6.49;0.91;;;;;;;3.96;91.79;98057.66;2028994;79;21504;-71
2022/01/09 09:18:06;;;;;;;5.17;1.06;;;;;;;4.05;92.05;98067.03;2023051;77;22562;-72
2022/01/09 09:21:09;;;;;;;3.34;0.57;;;;;;;4.09;92.35;98067.03;2023889;79;20190;-72
2022/01/09 09:24:13;;;;;;;6.26;0.80;;;;;;;4.10;92.31;98081.59;2023273;79;20323;-71
2022/01/09 09:27:15;;;;;;;4.81;0.77;;;;;;;4.11;92.29;98087.59;2023173;79;20342;-72
2022/01/09 09:30:18;;;;;;;4.97;0.76;;;;;;;4.12;92.36;98084.16;2021697;79;20343;-71
2022/01/09 09:33:21;;;;;;;6.06;0.98;;;;;;;4.13;92.33;98097.03;2022864;77;21440;-71
2022/01/09 09:36:24;;;;;;;6.91;1.05;;;;;;;4.10;92.27;98094.44;2023612;79;20819;-73
2022/01/09 09:39:26;;;;;;;9.09;1.04;;;;;;;4.10;92.34;98103.84;2022546;79;20526;-73
2022/01/09 09:42:29;;;;;;;7.40;1.01;;;;;;;4.10;92.72;98106.41;2022903;79;20370;-71
2022/01/09 09:45:32;;;;;;;9.64;1.08;;;;;;;4.11;93.00;98105.56;2021168;78;22760;-70
2022/01/09 09:48:34;;;;;;;6.53;1.58;;;;;;;4.12;92.75;98107.28;2023802;79;20450;-71
2022/01/09 09:51:37;;;;;;;6.71;1.58;;;;;;;4.12;92.64;98105.56;2022894;79;20344;-71
2022/01/09 09:54:39;;;;;;;4.65;0.85;;;;;;;4.17;92.85;98108.16;2022556;79;20930;-70
2022/01/09 09:57:42;;;;;;;4.11;0.80;;;;;;;4.21;92.60;98113.28;2023473;79;20373;-71
2022/01/09 10:01:03;;;;;;;4.39;0.90;;;;;;;4.27;92.70;98114.13;2021791;77;22620;-71
2022/01/09 10:04:08;;;;;;;2.56;0.70;;;;;;;4.37;92.62;98114.16;2024808;79;20331;-71
2022/01/09 10:07:22;;;;;;;8.60;0.77;;;;;;;4.45;92.70;98117.56;2025395;79;21270;-71
2022/01/09 10:10:32;;;;;;;4.81;1.00;;;;;;;4.61;92.81;98118.41;2025793;80;20323;-71
2022/01/09 10:13:35;;;;;;;6.34;0.65;;;;;;;4.68;92.06;98119.25;2024979;79;20411;-71
2022/01/09 10:16:37;;;;;;;6.11;1.25;;;;;;;4.70;91.66;98120.97;2023711;77;22374;-72
2022/01/09 10:19:44;;;;;;;5.41;0.68;;;;;;;4.71;91.11;98125.25;2024651;80;20340;-71
2022/01/09 10:22:53;;;;;;;6.20;1.11;;;;;;;4.70;90.78;98130.41;2024369;80;20966;-71
2022/01/09 10:26:09;;;;;;;3.90;0.85;;;;;;;4.66;90.64;98126.94;2024835;80;20363;-71
2022/01/09 10:29:11;;;;;;;4.63;0.70;;;;;;;4.69;90.72;98126.97;2024798;80;20239;-71
2022/01/09 10:32:16;;;;;;;4.75;1.10;;;;;;;4.75;90.67;98133.81;2025163;77;22642;-71
2022/01/09 10:35:19;;;;;;;4.41;0.71;;;;;;;4.80;90.24;98127.78;2024934;80;20342;-71
2022/01/09 10:38:24;;;;;;;6.30;1.19;;;;;;;4.82;90.03;98135.50;2025895;80;21546;-71
2022/01/09 10:41:44;;;;;;;5.61;0.74;;;;;;;4.83;89.74;98140.63;2025885;79;20323;-71
2022/01/09 10:44:46;;;;;;;4.78;0.85;;;;;;;4.89;89.49;98138.94;2025975;80;20383;-71
2022/01/09 10:47:55;;;;;;;4.36;0.90;;;;;;;4.95;89.41;98134.63;2029683;77;21209;-71
2022/01/09 10:50:59;;;;;;;3.60;0.69;;;;;;;4.95;88.96;98139.75;2032077;79;20453;-71
2022/01/09 10:54:04;;;;;;;4.78;0.61;;;;;;;4.95;88.84;98133.78;2032435;79;20201;-71
2022/01/09 10:57:14;;;;;;;2.50;0.60;;;;;;;4.86;88.64;98129.50;2031336;79;20397;-71
2022/01/09 11:00:17;;;;;;;2.96;0.76;;;;;;;4.85;88.50;98130.38;2029587;79;20322;-71
2022/01/09 11:03:19;;;;;;;2.70;0.50;;;;;;;4.84;88.00;98132.06;2029934;79;20413;-71
2022/01/09 11:06:25;;;;;;;3.99;0.68;;;;;;;4.88;88.13;98129.50;2032201;79;20334;-71
2022/01/09 11:09:30;;;;;;;2.84;0.85;;;;;;;4.94;87.74;98134.63;2031941;79;20327;-71
2022/01/09 11:12:42;;;;;;;3.61;1.13;;;;;;;4.95;86.87;98136.34;2031933;79;20329;-71
2022/01/09 11:16:32;;;;;;;1.91;0.60;;;;;;;4.99;86.75;98131.19;2028921;77;23803;-72
2022/01/09 11:19:10;;;;;;;3.38;0.85;;;;;;;4.98;86.50;98128.59;2032397;79;20341;-71
2022/01/09 11:22:13;;;;;;;4.11;0.59;;;;;;;4.99;86.94;98138.88;2031204;79;20344;-71
2022/01/09 11:25:27;;;;;;;2.59;0.43;;;;;;;4.95;86.20;98129.47;2031793;79;20331;-73
2022/01/09 11:28:36;;;;;;;1.17;0.32;;;;;;;4.95;86.00;98126.06;2031406;79;20410;-72
2022/01/09 11:31:48;;;;;;;2.03;0.31;;;;;;;5.06;86.43;98129.47;2030708;79;22515;-72
2022/01/09 11:35:06;;;;;;;2.76;0.49;;;;;;;5.12;86.27;98139.72;2032022;79;20270;-72
2022/01/09 11:38:24;;;;;;;2.51;0.49;;;;;;;5.20;86.03;98145.69;2032744;79;20933;-72
2022/01/09 11:41:29;;;;;;;1.14;0.45;;;;;;;5.23;85.34;98139.69;2032546;79;20346;-72
2022/01/09 11:44:32;;;;;;;1.81;0.50;;;;;;;5.26;85.07;98134.53;2032716;79;20344;-72
2022/01/09 11:47:48;;;;;;;3.29;0.46;;;;;;;5.19;84.78;98146.56;2029406;78;23509;-72
2022/01/09 11:51:06;;;;;;;2.61;0.46;;;;;;;5.15;84.88;98145.72;2032214;79;20326;-72
2022/01/09 11:54:18;;;;;;;1.69;0.40;;;;;;;5.08;85.20;98145.75;2031502;79;20314;-72
2022/01/09 11:57:45;;;;;;;3.13;0.50;;;;;;;5.06;85.49;98142.31;2032734;79;21479;-72
2022/01/09 12:00:49;;;;;;;4.71;0.52;;;;;;;5.04;85.68;98147.47;2029554;77;20722;-72
2022/01/09 12:03:52;;;;;;;3.51;0.82;;;;;;;5.00;85.69;98144.88;2031779;79;20394;-72
2022/01/09 12:06:56;;;;;;;4.96;1.36;;;;;;;4.90;85.75;98145.78;2031932;79;20305;-72
2022/01/09 12:10:00;;;;;;;2.78;1.00;;;;;;;4.82;86.05;98138.94;2031383;79;20430;-71
2022/01/09 12:13:05;;;;;;;4.96;0.63;;;;;;;4.84;86.72;98141.50;2030199;79;20329;-71
2022/01/09 12:16:29;;;;;;;3.91;0.79;;;;;;;4.81;86.96;98136.34;2027209;77;21253;-71
2022/01/09 12:20:14;;;;;;;3.38;0.64;;;;;;;4.79;87.08;98145.78;2024483;79;20323;-71
2022/01/09 12:23:21;;;;;;;2.95;0.82;;;;;;;4.87;88.03;98143.22;2020562;79;20351;-71
2022/01/09 12:26:27;;;;;;;3.99;0.73;;;;;;;5.00;88.68;98144.88;2024432;79;20307;-71
2022/01/09 12:29:47;;;;;;;6.18;0.70;;;;;;;5.12;88.18;98137.16;2024745;79;20380;-71
2022/01/09 12:32:49;;;;;;;8.09;1.13;;;;;;;5.19;87.51;98141.41;2023881;77;21784;-72
2022/01/09 12:35:57;;;;;;;2.40;0.57;;;;;;;5.23;87.25;98137.97;2025258;79;20331;-73
2022/01/09 12:39:05;;;;;;;7.41;0.95;;;;;;;5.33;87.41;98133.66;2025568;79;21284;-72
2022/01/09 12:42:08;;;;;;;6.91;1.14;;;;;;;5.37;86.80;98131.03;2026199;79;20712;-72
2022/01/09 12:45:10;;;;;;;4.79;0.90;;;;;;;5.44;85.52;98130.19;2024173;79;20322;-72
2022/01/09 12:48:32;;;;;;;6.97;1.30;;;;;;;5.59;85.91;98118.97;2025091;77;28469;-72
2022/01/09 12:51:36;;;;;;;6.38;1.00;;;;;;;5.80;86.01;98127.41;2025770;79;20319;-72
2022/01/09 12:54:39;;;;;;;3.94;0.76;;;;;;;5.94;84.83;98128.22;2026397;79;20448;-72
2022/01/09 12:57:52;;;;;;;3.67;0.70;;;;;;;5.92;82.71;98128.22;2025836;79;20340;-72
2022/01/09 13:00:56;;;;;;;6.07;0.73;;;;;;;5.92;82.65;98125.63;2024513;77;21169;-72
2022/01/09 13:04:01;;;;;;;6.05;0.73;;;;;;;5.94;82.61;98128.22;2026047;79;21627;-72
2022/01/09 13:07:06;;;;;;;7.44;0.91;;;;;;;5.93;80.45;98126.53;2025370;79;20310;-73
2022/01/09 13:10:11;;;;;;;4.35;0.80;;;;;;;5.88;78.88;98123.06;2026373;79;20414;-73
2022/01/09 13:13:15;;;;;;;6.11;0.70;;;;;;;5.78;78.77;98119.72;2025952;79;20351;-73
2022/01/09 13:16:26;;;;;;;8.32;1.35;;;;;;;5.79;79.59;98120.56;2024634;78;23286;-72
2022/01/09 13:19:29;;;;;;;5.49;0.89;;;;;;;5.80;79.66;98122.28;2024738;79;20370;-73
2022/01/09 13:22:43;;;;;;;3.06;0.57;;;;;;;5.76;78.92;98126.59;2025265;79;20348;-73
2022/01/09 13:25:51;;;;;;;7.19;1.38;;;;;;;5.72;78.99;98128.31;2025675;79;20347;-73
2022/01/09 13:28:54;;;;;;;6.40;1.06;;;;;;;5.66;79.25;98120.63;2025559;79;20311;-72
2022/01/09 13:31:59;;;;;;;4.55;0.98;;;;;;;5.63;79.95;98136.09;2024277;77;29460;-73
2022/01/09 13:35:02;;;;;;;5.56;0.77;;;;;;;5.58;79.31;98124.97;2026728;79;20348;-73
2022/01/09 13:38:05;;;;;;;3.66;0.66;;;;;;;5.51;79.30;98135.28;2027028;79;20310;-74
2022/01/09 13:41:08;;;;;;;4.90;0.90;;;;;;;5.47;79.59;98134.44;2025151;79;20346;-73
2022/01/09 13:44:11;;;;;;;7.56;0.71;;;;;;;5.49;80.22;98142.16;2026691;79;20338;-73
2022/01/09 13:47:17;;;;;;;5.29;0.70;;;;;;;5.48;80.76;98141.31;2024758;77;25285;-73
2022/01/09 13:50:24;;;;;;;4.93;0.94;;;;;;;5.41;79.74;98145.63;2026142;79;21055;-73
2022/01/09 13:53:28;;;;;;;4.70;0.68;;;;;;;5.40;79.69;98137.94;2026015;79;20938;-73
2022/01/09 13:56:30;;;;;;;3.65;1.36;;;;;;;5.37;79.82;98143.91;2025569;79;20197;-73
2022/01/09 13:59:38;;;;;;;7.34;0.95;;;;;;;5.36;79.34;98142.19;2026434;79;20330;-73
2022/01/09 14:02:42;;;;;;;6.72;1.00;;;;;;;5.38;78.46;98144.78;2023951;77;23621;-73
2022/01/09 14:06:05;;;;;;;2.10;0.68;;;;;;;5.37;78.52;98148.19;2025978;79;21186;-73
2022/01/09 14:09:08;;;;;;;5.35;0.89;;;;;;;5.40;79.59;98150.78;2026068;79;20383;-73
2022/01/09 14:12:12;;;;;;;4.41;0.66;;;;;;;5.43;79.67;98151.63;2026376;80;21305;-73
2022/01/09 14:15:20;;;;;;;3.85;0.69;;;;;;;5.60;80.07;98138.69;2025120;79;20319;-73
2022/01/09 14:18:31;;;;;;;2.63;0.73;;;;;;;5.73;79.53;98142.03;2031343;79;20329;-73
2022/01/09 14:21:50;;;;;;;2.08;0.50;;;;;;;5.81;79.01;98145.44;2032754;79;20666;-73
2022/01/09 14:24:57;;;;;;;4.40;0.70;;;;;;;5.84;79.30;98152.28;2026068;79;20393;-73
2022/01/09 14:28:04;;;;;;;2.99;0.65;;;;;;;5.83;79.66;98155.72;2031522;79;20379;-73
2022/01/09 14:31:10;;;;;;;3.13;0.60;;;;;;;5.84;80.05;98160.00;2028052;77;22468;-73
2022/01/09 14:34:13;;;;;;;2.49;0.50;;;;;;;5.79;79.44;98160.06;2026216;79;21341;-73
2022/01/09 14:37:15;;;;;;;2.65;0.60;;;;;;;5.73;78.77;98162.63;2025577;79;20338;-73
2022/01/09 14:40:18;;;;;;;1.56;0.40;;;;;;;5.58;78.70;98166.16;2026337;79;21220;-73
2022/01/09 14:43:23;;;;;;;2.92;0.46;;;;;;;5.51;79.24;98166.19;2025818;79;20336;-73
2022/01/09 14:46:26;;;;;;;1.39;0.40;;;;;;;5.38;79.36;98175.66;2024260;77;23618;-73